Time;durP1;ratioP1;P1;durP2;ratioP2;P2;SDS_P1;SDS_P2;PMS_P1;PMS_P2;Temp;Humidity;BMP_temperature;BMP_pressure;BME280_temperature;BME280_humidity;BME280_pressure;Samples;Min_cycle;Max_cycle;Signal;HPM_P1;HPM_P2
2023/01/19 00:01:35;;;;;;;55.83;34.03;;;8.30;1.00;;;;;;5011815;28;20026;-46
2023/01/19 00:04:01;;;;;;;62.00;35.70;;;8.20;1.00;;;;;;4993333;28;20041;-47
2023/01/19 00:06:27;;;;;;;57.10;33.13;;;8.20;1.00;;;;;;5010932;28;20165;-46
2023/01/19 00:08:53;;;;;;;54.60;33.07;;;8.20;1.00;;;;;;4993592;28;20068;-46
2023/01/19 00:11:20;;;;;;;56.23;33.93;;;8.20;1.00;;;;;;5011670;28;20083;-48
2023/01/19 00:14:01;;;;;;;56.13;34.13;;;8.30;1.00;;;;;;4998009;28;20022;-47
2023/01/19 00:16:27;;;;;;;52.53;32.83;;;8.30;1.00;;;;;;4993243;28;20044;-46
2023/01/19 00:18:52;;;;;;;52.97;33.33;;;8.20;1.00;;;;;;5011314;28;20022;-49
2023/01/19 00:21:20;;;;;;;60.83;34.87;;;8.30;1.00;;;;;;5011383;28;20065;-46
2023/01/19 00:23:46;;;;;;;56.70;35.33;;;8.20;1.00;;;;;;5011847;28;20026;-45
2023/01/19 00:26:15;;;;;;;55.73;34.37;;;8.10;1.00;;;;;;5010775;28;20049;-46
2023/01/19 00:28:42;;;;;;;61.40;35.63;;;8.10;1.00;;;;;;5010955;28;20080;-46
2023/01/19 00:31:08;;;;;;;64.37;37.80;;;7.70;16.60;;;;;;5001969;28;20065;-44
2023/01/19 00:33:33;;;;;;;64.80;35.80;;;7.60;15.40;;;;;;5010609;28;20057;-44
2023/01/19 00:35:59;;;;;;;63.33;36.90;;;7.40;45.90;;;;;;5007798;28;20042;-49
2023/01/19 00:38:24;;;;;;;62.13;37.53;;;7.20;19.40;;;;;;5003970;28;20456;-45
2023/01/19 00:40:50;;;;;;;75.87;41.97;;;7.30;20.90;;;;;;5011696;28;20032;-45
2023/01/19 00:43:16;;;;;;;67.07;38.77;;;7.30;20.00;;;;;;5014329;28;20072;-45
2023/01/19 00:45:41;;;;;;;66.40;38.90;;;7.00;17.20;;;;;;4996964;28;20037;-49
2023/01/19 00:48:07;;;;;;;70.23;40.03;;;7.00;13.60;;;;;;5014788;28;20523;-45
2023/01/19 00:50:33;;;;;;;63.03;38.43;;;7.00;6.30;;;;;;5014709;28;20041;-46
2023/01/19 00:53:00;;;;;;;65.03;38.00;;;7.10;1.00;;;;;;5013890;28;20505;-46
2023/01/19 00:55:29;;;;;;;66.00;36.63;;;6.70;1.00;;;;;;5013744;28;20415;-46
2023/01/19 00:57:55;;;;;;;69.30;40.20;;;6.50;1.00;;;;;;4996944;28;20053;-46
2023/01/19 01:00:21;;;;;;;66.63;39.33;;;6.60;1.00;;;;;;4996700;28;20375;-46
2023/01/19 01:02:49;;;;;;;70.80;39.20;;;6.80;1.00;;;;;;5014479;28;20053;-46
2023/01/19 01:05:15;;;;;;;70.97;39.27;;;6.70;1.00;;;;;;5013854;28;20125;-46
2023/01/19 01:07:43;;;;;;;70.27;39.07;;;6.90;1.00;;;;;;5014000;28;20087;-46
2023/01/19 01:10:12;;;;;;;65.00;38.50;;;6.90;1.00;;;;;;5014499;28;20029;-46
2023/01/19 01:12:38;;;;;;;73.30;39.73;;;7.00;1.00;;;;;;5013510;28;20514;-49
2023/01/19 01:15:06;;;;;;;72.37;40.37;;;7.00;1.00;;;;;;5014166;28;20376;-46
2023/01/19 01:17:31;;;;;;;64.50;37.13;;;7.00;1.00;;;;;;5011253;28;20072;-46
2023/01/19 01:19:57;;;;;;;67.30;37.63;;;7.00;1.00;;;;;;5014191;28;20488;-47
2023/01/19 01:22:22;;;;;;;64.27;37.00;;;6.90;1.00;;;;;;5013680;28;20326;-45
2023/01/19 01:24:48;;;;;;;60.27;35.97;;;6.80;1.00;;;;;;5014325;28;20105;-46
2023/01/19 01:27:14;;;;;;;68.73;37.70;;;6.80;1.00;;;;;;5013455;28;20353;-46
2023/01/19 01:29:41;;;;;;;71.93;38.97;;;6.80;1.00;;;;;;5013830;28;20041;-46
2023/01/19 01:32:07;;;;;;;62.90;35.70;;;6.90;1.00;;;;;;5012628;28;20033;-47
2023/01/19 01:34:33;;;;;;;66.07;36.63;;;6.80;1.00;;;;;;4995681;28;20030;-47
2023/01/19 01:36:59;;;;;;;68.37;37.73;;;6.80;1.00;;;;;;4995886;28;20037;-49
2023/01/19 01:39:24;;;;;;;69.03;37.83;;;7.10;1.00;;;;;;5012720;28;20026;-45
2023/01/19 01:41:50;;;;;;;64.30;38.60;;;7.30;1.00;;;;;;5013754;28;20054;-46
2023/01/19 01:44:54;;;;;;;64.20;35.10;;;7.40;1.00;;;;;;4995912;28;20026;-47
2023/01/19 01:47:28;;;;;;;62.00;34.60;;;7.40;1.00;;;;;;5012270;28;20022;-46
2023/01/19 01:50:01;;;;;;;60.45;35.05;;;7.30;1.00;;;;;;5013312;28;20022;-46
2023/01/19 01:52:30;;;;;;;64.13;36.40;;;7.30;1.00;;;;;;5006681;28;20054;-48
2023/01/19 01:54:57;;;;;;;60.93;34.43;;;7.30;1.00;;;;;;5012628;28;20117;-46
2023/01/19 01:57:26;;;;;;;61.33;34.70;;;7.40;1.00;;;;;;5010593;28;20037;-46
2023/01/19 01:59:54;;;;;;;66.10;36.23;;;7.40;1.00;;;;;;5011330;28;20018;-47
2023/01/19 02:05:40;;;;;;;65.27;35.73;;;7.40;1.00;;;;;;5009186;28;20034;-46
2023/01/19 02:13:38;;;;;;;64.85;35.45;;;7.30;1.00;;;;;;5013628;28;20149;-45
2023/01/19 02:16:08;;;;;;;57.27;31.63;;;7.40;1.00;;;;;;4995079;28;20044;-45
2023/01/19 02:18:34;;;;;;;62.00;34.03;;;7.50;1.00;;;;;;5011694;28;20065;-46
2023/01/19 02:21:21;;;;;;;62.23;35.40;;;7.60;1.00;;;;;;5012416;28;20034;-45
2023/01/19 02:23:54;;;;;;;61.87;33.60;;;7.50;1.00;;;;;;5012836;28;20468;-45
2023/01/19 02:26:24;;;;;;;60.83;33.97;;;7.40;1.00;;;;;;5012303;28;20343;-44
2023/01/19 02:28:57;;;;;;;62.23;34.73;;;7.40;1.00;;;;;;5011589;28;20062;-44
2023/01/19 02:31:23;;;;;;;64.37;35.70;;;7.20;1.00;;;;;;5012087;28;20091;-46
2023/01/19 02:33:49;;;;;;;59.27;32.97;;;7.30;1.00;;;;;;5012066;28;20026;-45
2023/01/19 02:36:19;;;;;;;63.63;35.60;;;7.50;1.00;;;;;;5011887;28;20096;-46
2023/01/19 02:38:46;;;;;;;59.13;35.20;;;7.40;1.00;;;;;;5011927;28;20030;-45
2023/01/19 02:41:17;;;;;;;66.37;36.70;;;7.50;1.00;;;;;;5011680;28;20036;-45
2023/01/19 02:43:44;;;;;;;63.70;35.77;;;7.40;1.00;;;;;;4994497;28;20022;-45
2023/01/19 02:46:09;;;;;;;58.30;33.67;;;7.60;1.00;;;;;;5011448;28;20030;-46
2023/01/19 02:48:35;;;;;;;57.70;33.90;;;7.40;1.00;;;;;;5011229;28;20037;-47
2023/01/19 02:51:08;;;;;;;62.63;34.83;;;7.50;1.00;;;;;;5011417;28;20032;-47
2023/01/19 02:53:36;;;;;;;65.37;37.27;;;7.60;1.00;;;;;;5000492;28;20050;-47
2023/01/19 02:56:11;;;;;;;68.37;36.37;;;7.50;1.00;;;;;;4998871;28;20042;-45
2023/01/19 02:58:59;;;;;;;60.95;36.88;;;7.60;1.00;;;;;;5011892;28;20026;-46
2023/01/19 03:01:46;;;;;;;63.63;35.33;;;7.40;1.00;;;;;;4999786;28;20236;-45
2023/01/19 03:04:26;;;;;;;61.57;34.20;;;7.50;1.00;;;;;;5008016;28;20060;-44
2023/01/19 03:06:59;;;;;;;62.83;35.10;;;7.40;1.00;;;;;;5011230;28;20344;-44
2023/01/19 03:09:52;;;;;;;64.77;35.90;;;7.40;1.00;;;;;;5010916;28;20022;-46
2023/01/19 03:12:33;;;;;;;60.17;34.60;;;7.40;1.00;;;;;;4977911;28;20050;-44
2023/01/19 03:15:04;;;;;;;61.30;35.10;;;7.40;1.00;;;;;;4999937;28;20030;-47
2023/01/19 03:17:32;;;;;;;62.93;37.53;;;7.30;1.00;;;;;;5011754;28;20434;-47
2023/01/19 03:19:58;;;;;;;62.90;34.40;;;7.10;1.00;;;;;;5012119;28;20029;-45
2023/01/19 03:22:27;;;;;;;64.87;36.23;;;7.20;1.00;;;;;;5011453;28;20029;-45
2023/01/19 03:24:57;;;;;;;61.70;34.20;;;7.20;1.00;;;;;;5010794;28;20058;-46
2023/01/19 03:27:32;;;;;;;61.33;34.60;;;7.00;1.00;;;;;;5011606;28;20109;-46
2023/01/19 03:30:11;;;;;;;59.97;34.13;;;6.90;1.00;;;;;;5012333;28;20392;-46
2023/01/19 03:32:52;;;;;;;62.10;33.93;;;7.00;1.00;;;;;;5011777;28;20061;-45
2023/01/19 03:35:21;;;;;;;58.50;31.67;;;7.30;1.00;;;;;;5011835;28;20034;-47
2023/01/19 03:37:49;;;;;;;52.73;31.93;;;7.50;1.00;;;;;;5011872;28;20026;-47
2023/01/19 03:40:15;;;;;;;59.90;33.43;;;7.40;1.00;;;;;;5011253;28;20037;-47
2023/01/19 03:42:43;;;;;;;58.80;33.43;;;7.40;1.00;;;;;;4994416;28;20030;-45
2023/01/19 03:45:11;;;;;;;58.30;32.87;;;7.50;1.00;;;;;;5011723;28;20033;-47
2023/01/19 03:47:37;;;;;;;57.97;32.97;;;7.30;1.00;;;;;;5010801;28;20034;-45
2023/01/19 03:50:09;;;;;;;56.27;32.10;;;7.40;1.00;;;;;;5011971;28;20112;-46
2023/01/19 03:52:34;;;;;;;62.07;34.87;;;7.50;1.00;;;;;;5011244;28;20113;-45
2023/01/19 03:55:03;;;;;;;63.77;34.50;;;7.50;1.00;;;;;;5011604;28;20034;-45
2023/01/19 03:57:29;;;;;;;55.73;32.67;;;7.60;1.00;;;;;;5003535;28;20056;-45
2023/01/19 03:59:55;;;;;;;62.27;35.00;;;7.50;1.00;;;;;;5011719;28;20053;-45
2023/01/19 04:02:21;;;;;;;61.40;34.57;;;7.50;1.00;;;;;;5011537;28;20484;-45
2023/01/19 04:04:47;;;;;;;63.23;35.03;;;7.40;1.00;;;;;;4994439;28;20041;-47
2023/01/19 04:07:12;;;;;;;61.60;35.10;;;7.40;1.00;;;;;;4998134;28;20034;-45
2023/01/19 04:09:38;;;;;;;60.83;34.90;;;7.50;1.00;;;;;;5007026;28;20028;-45
2023/01/19 04:12:04;;;;;;;59.70;33.30;;;7.50;1.00;;;;;;5011140;28;20038;-47
2023/01/19 04:14:29;;;;;;;58.03;32.83;;;7.50;1.00;;;;;;5012156;28;20068;-45
2023/01/19 04:17:01;;;;;;;59.33;32.53;;;7.50;1.00;;;;;;5015319;28;20037;-49
2023/01/19 04:19:27;;;;;;;58.43;32.30;;;7.50;1.00;;;;;;5015316;28;20037;-48
2023/01/19 04:21:54;;;;;;;61.43;32.87;;;7.60;1.00;;;;;;5014875;28;20026;-45
2023/01/19 04:24:19;;;;;;;57.37;31.87;;;7.50;1.00;;;;;;5015322;28;20533;-45
2023/01/19 04:26:45;;;;;;;60.60;33.93;;;7.60;1.00;;;;;;5014245;28;20067;-45
2023/01/19 04:29:12;;;;;;;59.20;33.27;;;7.60;1.00;;;;;;5015090;28;20025;-47
2023/01/19 04:31:38;;;;;;;63.23;36.30;;;7.50;1.00;;;;;;5015048;28;20025;-45
2023/01/19 04:34:03;;;;;;;58.00;33.40;;;7.50;1.00;;;;;;5014877;28;20048;-49
2023/01/19 04:36:30;;;;;;;57.60;32.13;;;7.50;1.00;;;;;;5014301;28;20040;-50
2023/01/19 04:49:42;;;;;;;61.57;34.27;;;7.30;1.00;;;;;;4996127;28;20543;-45
2023/01/19 04:52:08;;;;;;;64.33;34.57;;;7.20;1.00;;;;;;5011429;28;20120;-50
2023/01/19 04:54:33;;;;;;;58.03;33.00;;;7.30;1.00;;;;;;5014635;28;20113;-45
2023/01/19 04:56:59;;;;;;;60.20;33.03;;;7.30;1.00;;;;;;5014230;28;20037;-45
2023/01/19 04:59:25;;;;;;;55.30;32.10;;;7.30;1.00;;;;;;5013650;28;20026;-45
2023/01/19 05:01:50;;;;;;;60.63;33.67;;;7.30;1.00;;;;;;5014593;28;20068;-45
2023/01/19 05:04:16;;;;;;;55.73;31.10;;;7.40;1.00;;;;;;5014401;28;20017;-45
2023/01/19 05:06:41;;;;;;;60.17;33.70;;;7.40;1.00;;;;;;5013953;28;20419;-46
2023/01/19 05:09:07;;;;;;;59.40;34.03;;;7.40;1.00;;;;;;4996422;28;20022;-45
2023/01/19 05:11:34;;;;;;;57.43;32.63;;;7.40;1.00;;;;;;5013940;28;20454;-46
2023/01/19 05:14:00;;;;;;;57.47;31.70;;;7.30;1.00;;;;;;5014346;28;20376;-46
2023/01/19 05:16:25;;;;;;;57.47;32.57;;;7.30;1.00;;;;;;5013521;28;20084;-46
2023/01/19 05:18:51;;;;;;;56.63;32.83;;;7.20;1.00;;;;;;5014301;28;20018;-45
2023/01/19 05:21:17;;;;;;;56.00;33.27;;;7.10;1.00;;;;;;5013889;28;20048;-45
2023/01/19 05:23:43;;;;;;;62.63;34.03;;;7.30;1.00;;;;;;5013600;28;20022;-46
2023/01/19 05:26:09;;;;;;;65.47;33.43;;;7.20;1.00;;;;;;5013177;28;20029;-44
2023/01/19 05:28:34;;;;;;;61.63;33.47;;;7.40;1.00;;;;;;5013617;28;20105;-44
2023/01/19 05:31:00;;;;;;;59.67;34.03;;;7.10;1.00;;;;;;5004253;28;20040;-44
2023/01/19 05:33:26;;;;;;;65.20;34.57;;;7.20;1.00;;;;;;5014313;28;20104;-45
2023/01/19 05:35:53;;;;;;;61.17;33.80;;;6.90;1.00;;;;;;5013668;28;20034;-46
2023/01/19 05:38:19;;;;;;;62.53;34.43;;;7.10;1.00;;;;;;5013876;28;20026;-44
2023/01/19 05:40:45;;;;;;;59.77;33.27;;;7.10;1.00;;;;;;5012385;28;20036;-46
2023/01/19 05:43:11;;;;;;;64.83;33.33;;;7.10;1.00;;;;;;5013853;28;20126;-45
2023/01/19 05:45:40;;;;;;;62.67;33.03;;;7.30;1.00;;;;;;5013358;28;20092;-46
2023/01/19 05:48:06;;;;;;;57.43;30.93;;;7.40;1.00;;;;;;5013623;28;20103;-44
2023/01/19 05:50:33;;;;;;;58.47;32.47;;;7.40;1.00;;;;;;5013349;28;20033;-46
2023/01/19 05:53:01;;;;;;;61.33;32.70;;;7.40;1.00;;;;;;5013437;28;20041;-46
2023/01/19 05:55:28;;;;;;;58.03;30.60;;;7.50;1.00;;;;;;5012799;28;20609;-45
2023/01/19 05:57:53;;;;;;;56.43;30.97;;;7.40;1.00;;;;;;5013577;28;20026;-45
2023/01/19 06:00:19;;;;;;;59.23;31.27;;;7.50;1.00;;;;;;4994803;28;20030;-44
2023/01/19 06:02:48;;;;;;;54.93;31.00;;;7.40;1.00;;;;;;5013547;28;20527;-45
2023/01/19 06:05:14;;;;;;;49.67;28.50;;;7.30;1.00;;;;;;5012981;28;20017;-45
2023/01/19 06:07:40;;;;;;;50.80;28.77;;;7.30;1.00;;;;;;5013184;28;20464;-45
2023/01/19 06:10:06;;;;;;;56.77;31.67;;;7.10;1.00;;;;;;5012958;28;20032;-44
2023/01/19 06:12:32;;;;;;;54.67;30.83;;;7.30;1.00;;;;;;5013543;28;20040;-46
2023/01/19 06:14:57;;;;;;;51.13;29.30;;;7.50;1.00;;;;;;5012646;28;20046;-45
2023/01/19 06:17:23;;;;;;;53.70;29.23;;;7.50;1.00;;;;;;5012631;28;20022;-45
2023/01/19 06:19:49;;;;;;;51.07;29.73;;;7.40;1.00;;;;;;4981630;28;20040;-45
2023/01/19 06:22:14;;;;;;;50.97;29.27;;;7.50;1.00;;;;;;5012937;28;20105;-44
2023/01/19 06:24:40;;;;;;;53.43;30.33;;;7.50;1.00;;;;;;5012450;28;20467;-44
2023/01/19 06:27:06;;;;;;;51.43;30.23;;;7.50;1.00;;;;;;5012701;28;20136;-44
2023/01/19 06:29:31;;;;;;;52.33;29.63;;;7.60;1.00;;;;;;5012133;28;20030;-44
2023/01/19 06:31:57;;;;;;;54.73;30.53;;;7.60;1.00;;;;;;5012635;28;20475;-46
2023/01/19 06:34:27;;;;;;;51.53;30.63;;;7.50;1.00;;;;;;4995008;28;20029;-45
2023/01/19 06:36:56;;;;;;;52.83;29.90;;;7.60;1.00;;;;;;5012459;28;20445;-47
2023/01/19 06:39:22;;;;;;;51.97;28.43;;;7.50;1.00;;;;;;5007950;28;20483;-45
2023/01/19 06:41:47;;;;;;;52.33;30.97;;;7.70;1.00;;;;;;5009973;28;20045;-47
2023/01/19 06:44:13;;;;;;;52.70;31.83;;;7.70;1.00;;;;;;5007910;28;20053;-46
2023/01/19 06:46:39;;;;;;;55.07;29.50;;;7.70;1.00;;;;;;5006857;28;20130;-45
2023/01/19 06:49:06;;;;;;;45.23;25.97;;;7.60;1.00;;;;;;5012515;28;20034;-44
2023/01/19 06:51:32;;;;;;;37.90;22.13;;;7.50;1.00;;;;;;5012272;28;20026;-45
2023/01/19 06:53:58;;;;;;;31.90;18.97;;;7.50;1.00;;;;;;5012161;28;20578;-45
2023/01/19 06:56:23;;;;;;;23.30;14.60;;;7.50;1.00;;;;;;5011822;28;20069;-46
2023/01/19 06:58:52;;;;;;;25.00;14.50;;;7.20;1.00;;;;;;5011987;28;20025;-45
2023/01/19 07:01:18;;;;;;;20.50;12.33;;;7.10;1.00;;;;;;5012047;28;20083;-46
2023/01/19 07:03:44;;;;;;;18.30;11.57;;;7.20;1.00;;;;;;5012212;28;20022;-45
2023/01/19 07:06:10;;;;;;;21.33;11.17;;;7.20;1.00;;;;;;5011551;28;20033;-44
2023/01/19 07:08:37;;;;;;;18.67;12.07;;;7.20;1.00;;;;;;5011797;28;20078;-44
2023/01/19 07:11:05;;;;;;;17.10;9.63;;;7.30;1.00;;;;;;5012041;28;20133;-47
2023/01/19 07:13:32;;;;;;;11.47;7.10;;;7.00;1.00;;;;;;5012078;28;20091;-45
2023/01/19 07:16:02;;;;;;;14.37;8.40;;;7.00;1.00;;;;;;4993951;28;20045;-46
2023/01/19 07:18:27;;;;;;;13.77;8.13;;;7.10;1.00;;;;;;5012263;28;20483;-47
2023/01/19 07:20:55;;;;;;;13.90;8.20;;;6.90;1.00;;;;;;5011747;28;20059;-46
2023/01/19 07:23:21;;;;;;;15.23;8.80;;;7.10;1.00;;;;;;5011843;28;20105;-47
2023/01/19 07:25:46;;;;;;;15.80;7.50;;;7.10;1.00;;;;;;5012057;28;20108;-45
2023/01/19 07:28:14;;;;;;;11.47;6.00;;;7.10;1.00;;;;;;5011939;28;20084;-47
2023/01/19 07:30:41;;;;;;;11.40;7.20;;;7.00;1.00;;;;;;5011708;28;20030;-48
2023/01/19 07:33:07;;;;;;;14.47;8.10;;;7.10;1.00;;;;;;5011740;28;20032;-46
2023/01/19 07:35:33;;;;;;;16.60;9.33;;;6.90;1.00;;;;;;5010609;28;20042;-47
2023/01/19 07:37:58;;;;;;;11.10;6.47;;;6.70;1.00;;;;;;5011780;28;20125;-46
2023/01/19 07:40:24;;;;;;;9.57;5.60;;;6.60;1.00;;;;;;5011255;28;20037;-49
2023/01/19 07:42:50;;;;;;;10.07;5.13;;;6.10;95.40;;;;;;5011405;28;20152;-49
2023/01/19 07:45:17;;;;;;;8.47;4.90;;;6.10;99.90;;;;;;4998210;28;20014;-47
2023/01/19 07:47:44;;;;;;;9.97;4.47;;;6.10;99.90;;;;;;5011152;28;20034;-46
2023/01/19 07:50:12;;;;;;;9.80;4.30;;;6.10;99.90;;;;;;5013564;28;20045;-44
2023/01/19 07:52:37;;;;;;;7.63;4.00;;;6.00;99.90;;;;;;5014541;28;20053;-45
2023/01/19 07:55:03;;;;;;;7.60;4.13;;;6.20;99.90;;;;;;5015435;28;20111;-48
2023/01/19 07:57:29;;;;;;;7.40;4.03;;;6.20;99.90;;;;;;5015364;28;20038;-46
2023/01/19 07:59:54;;;;;;;6.13;4.57;;;6.00;99.90;;;;;;5015470;28;20034;-46
2023/01/19 08:02:20;;;;;;;6.97;4.20;;;6.00;99.90;;;;;;5015344;28;20135;-45
2023/01/19 08:04:48;;;;;;;8.77;4.30;;;6.30;99.90;;;;;;5014470;28;20045;-43
2023/01/19 08:07:14;;;;;;;9.67;4.60;;;6.00;99.90;;;;;;5014831;28;20021;-43
2023/01/19 08:09:40;;;;;;;6.97;3.83;;;6.00;29.90;;;;;;5015409;28;20030;-44
2023/01/19 08:12:05;;;;;;;7.63;3.67;;;6.10;1.00;;;;;;5014880;28;20129;-44
2023/01/19 08:14:31;;;;;;;5.00;3.20;;;6.20;1.00;;;;;;5015111;28;20395;-45
2023/01/19 08:17:01;;;;;;;5.60;3.40;;;6.10;99.90;;;;;;5015193;28;20065;-48
2023/01/19 08:19:26;;;;;;;7.53;3.50;;;5.80;99.90;;;;;;5008339;28;20401;-45
2023/01/19 08:21:52;;;;;;;3.67;2.40;;;5.90;99.90;;;;;;5015868;28;20109;-49
2023/01/19 08:24:20;;;;;;;3.63;2.13;;;5.80;99.90;;;;;;5015186;28;20034;-49
2023/01/19 08:26:46;;;;;;;2.60;1.83;;;5.80;99.90;;;;;;5014573;28;20533;-47
2023/01/19 08:29:12;;;;;;;5.70;1.97;;;5.70;99.90;;;;;;5015070;28;20484;-49
2023/01/19 08:31:39;;;;;;;3.30;1.80;;;5.70;99.90;;;;;;5014699;28;20044;-57
2023/01/19 08:34:05;;;;;;;2.67;1.57;;;5.70;66.90;;;;;;5015421;28;20046;-47
2023/01/19 08:36:30;;;;;;;2.60;1.40;;;5.40;55.30;;;;;;5014442;28;20103;-49
2023/01/19 08:38:56;;;;;;;2.87;1.40;;;5.30;58.20;;;;;;5015427;28;20077;-49
2023/01/19 08:41:22;;;;;;;3.10;1.93;;;5.40;60.70;;;;;;4996541;28;20041;-47
2023/01/19 08:43:48;;;;;;;3.53;1.40;;;5.30;61.10;;;;;;5013886;28;20459;-47
2023/01/19 08:46:20;;;;;;;2.10;1.40;;;5.50;70.60;;;;;;5015062;28;20092;-45
2023/01/19 08:48:49;;;;;;;2.83;1.90;;;5.50;73.60;;;;;;5015121;28;20025;-47
2023/01/19 08:51:15;;;;;;;2.90;1.50;;;5.70;75.60;;;;;;5014548;28;20071;-47
2023/01/19 08:53:42;;;;;;;1.53;1.10;;;5.60;61.80;;;;;;5014281;28;20364;-47
2023/01/19 08:56:11;;;;;;;2.33;1.70;;;5.30;50.50;;;;;;4989597;28;20065;-46
2023/01/19 08:58:41;;;;;;;3.53;1.50;;;5.50;33.70;;;;;;5011737;28;20021;-46
2023/01/19 09:01:15;;;;;;;6.17;2.10;;;5.60;20.70;;;;;;5012922;28;20022;-47
2023/01/19 09:03:42;;;;;;;2.57;1.80;;;5.70;16.30;;;;;;5014190;28;20032;-48
2023/01/19 09:06:09;;;;;;;4.27;2.43;;;5.70;6.60;;;;;;5014098;28;20100;-49
2023/01/19 09:08:35;;;;;;;4.40;1.47;;;5.70;26.70;;;;;;5014818;28;20032;-47
2023/01/19 09:11:01;;;;;;;3.07;1.60;;;5.50;26.50;;;;;;5013866;28;20026;-47
2023/01/19 09:13:26;;;;;;;3.23;2.07;;;5.30;29.60;;;;;;5013451;28;20029;-47
2023/01/19 09:15:52;;;;;;;4.40;2.40;;;5.50;30.40;;;;;;5012666;28;20037;-49
2023/01/19 09:18:21;;;;;;;3.27;2.00;;;5.50;29.40;;;;;;5008791;28;20030;-51
2023/01/19 09:20:48;;;;;;;5.87;2.90;;;5.50;27.40;;;;;;5011200;28;20018;-49
2023/01/19 09:23:17;;;;;;;3.20;2.00;;;5.30;18.20;;;;;;4996705;28;20116;-51
2023/01/19 09:25:44;;;;;;;2.97;2.20;;;5.40;16.40;;;;;;5008996;28;20138;-49
2023/01/19 09:28:11;;;;;;;4.00;2.17;;;5.40;7.90;;;;;;5010018;28;20951;-55
2023/01/19 09:30:39;;;;;;;4.50;2.50;;;5.60;5.50;;;;;;5001640;28;20367;-52
2023/01/19 09:33:10;;;;;;;3.27;2.50;;;5.60;1.30;;;;;;5014104;28;20356;-51
2023/01/19 09:35:37;;;;;;;7.00;2.97;;;5.70;1.00;;;;;;4990517;28;20080;-55
2023/01/19 09:38:03;;;;;;;3.63;2.17;;;5.60;1.00;;;;;;5013344;28;20044;-45
2023/01/19 09:40:29;;;;;;;4.53;2.47;;;5.70;1.00;;;;;;5013016;28;20033;-48
2023/01/19 09:43:06;;;;;;;3.13;2.37;;;5.90;1.00;;;;;;5013671;28;20018;-46
2023/01/19 09:45:44;;;;;;;4.83;3.40;;;6.00;1.00;;;;;;5011300;28;20030;-45
2023/01/19 09:48:25;;;;;;;4.53;2.60;;;6.00;1.00;;;;;;5007936;28;20033;-45
2023/01/19 09:50:54;;;;;;;5.10;2.70;;;6.10;1.00;;;;;;5012920;28;20045;-45
2023/01/19 09:53:41;;;;;;;5.20;2.27;;;6.00;1.00;;;;;;5012941;28;20131;-46
2023/01/19 09:56:13;;;;;;;4.07;2.50;;;5.80;1.00;;;;;;5007367;28;20179;-47
2023/01/19 09:58:40;;;;;;;4.50;1.97;;;6.10;1.00;;;;;;5013217;28;20479;-45
2023/01/19 10:01:22;;;;;;;2.63;2.13;;;6.10;1.00;;;;;;5012489;28;20107;-45
2023/01/19 10:03:59;;;;;;;5.13;1.90;;;6.10;1.00;;;;;;5013518;28;20034;-46
2023/01/19 10:06:26;;;;;;;5.33;2.47;;;6.10;1.00;;;;;;4995361;28;20029;-45
2023/01/19 10:09:08;;;;;;;5.67;2.03;;;6.20;1.00;;;;;;5010290;28;20030;-45
2023/01/19 10:11:44;;;;;;;4.33;2.17;;;6.30;1.00;;;;;;5007298;28;20022;-45
2023/01/19 10:14:33;;;;;;;3.63;2.40;;;6.40;1.00;;;;;;5012837;28;20041;-45
2023/01/19 10:17:20;;;;;;;2.10;1.53;;;6.10;1.00;;;;;;5012674;28;20507;-45
2023/01/19 10:19:52;;;;;;;3.90;2.00;;;6.30;1.00;;;;;;5012453;28;20050;-45
2023/01/19 10:22:23;;;;;;;1.77;1.40;;;6.10;1.00;;;;;;5012599;28;20533;-46
2023/01/19 10:25:04;;;;;;;2.70;1.37;;;6.40;1.00;;;;;;5012297;28;20475;-45
2023/01/19 10:27:33;;;;;;;5.13;2.37;;;6.50;1.00;;;;;;5013132;28;20033;-45
2023/01/19 10:30:00;;;;;;;5.93;1.90;;;6.40;1.00;;;;;;4995014;28;20116;-45
2023/01/19 10:32:29;;;;;;;3.20;1.70;;;6.50;1.00;;;;;;5011846;28;20057;-47
2023/01/19 10:34:58;;;;;;;4.97;1.43;;;6.50;1.00;;;;;;5012292;28;20021;-45
2023/01/19 10:37:47;;;;;;;5.30;1.37;;;6.70;1.00;;;;;;5012519;28;20490;-46
2023/01/19 10:40:26;;;;;;;3.83;1.93;;;6.70;1.00;;;;;;5012527;28;20475;-45
2023/01/19 10:42:52;;;;;;;4.00;2.07;;;6.50;1.00;;;;;;5012690;28;20049;-45
2023/01/19 10:45:20;;;;;;;3.87;1.80;;;6.70;1.00;;;;;;5012048;28;20487;-45
2023/01/19 10:47:47;;;;;;;6.27;1.90;;;6.70;1.00;;;;;;5012964;28;20399;-46
2023/01/19 10:50:31;;;;;;;11.07;2.77;;;6.70;1.00;;;;;;5011952;28;20030;-45
2023/01/19 10:53:04;;;;;;;3.63;1.60;;;6.40;1.00;;;;;;5006068;28;20050;-45
2023/01/19 10:55:33;;;;;;;4.43;2.07;;;6.60;1.00;;;;;;5011219;28;20038;-45
2023/01/19 10:57:59;;;;;;;3.93;2.33;;;6.80;1.00;;;;;;5012368;28;20037;-45
2023/01/19 11:00:31;;;;;;;3.63;1.50;;;6.90;1.00;;;;;;5012361;28;20026;-45
2023/01/19 11:02:57;;;;;;;2.83;1.27;;;6.90;1.00;;;;;;4993377;28;20451;-45
2023/01/19 11:05:28;;;;;;;2.17;1.67;;;6.90;1.00;;;;;;5009283;28;20174;-44
2023/01/19 11:07:55;;;;;;;5.13;2.23;;;7.10;1.00;;;;;;4980332;28;20102;-45
2023/01/19 11:10:21;;;;;;;6.07;2.20;;;7.20;1.00;;;;;;4999508;28;20073;-46
2023/01/19 11:12:54;;;;;;;3.17;2.67;;;7.30;1.00;;;;;;5012247;28;20502;-46
2023/01/19 11:15:27;;;;;;;2.43;2.07;;;7.10;1.00;;;;;;4993236;28;20059;-45
2023/01/19 11:17:53;;;;;;;2.20;1.90;;;7.10;1.00;;;;;;5011926;28;20025;-47
2023/01/19 11:20:42;;;;;;;4.23;2.47;;;7.20;1.00;;;;;;5011700;28;20037;-47
2023/01/19 11:23:17;;;;;;;2.43;1.77;;;7.20;1.00;;;;;;5006517;28;20030;-49
2023/01/19 11:25:46;;;;;;;4.22;2.53;;;7.20;1.00;;;;;;5010461;28;20064;-48
2023/01/19 11:28:24;;;;;;;2.57;1.83;;;7.20;1.00;;;;;;5011964;28;20060;-46
2023/01/19 11:31:16;;;;;;;4.33;2.10;;;7.20;1.00;;;;;;5011265;28;20476;-44
2023/01/19 11:33:53;;;;;;;3.97;2.30;;;7.40;1.00;;;;;;5012125;28;20041;-45
2023/01/19 11:36:21;;;;;;;3.40;2.40;;;7.50;1.00;;;;;;5005927;28;20042;-45
2023/01/19 11:38:49;;;;;;;3.97;2.93;;;7.60;1.00;;;;;;5012053;28;20022;-44
2023/01/19 11:41:21;;;;;;;3.87;2.30;;;7.70;1.00;;;;;;5011428;28;20475;-45
2023/01/19 11:43:51;;;;;;;4.97;3.60;;;7.60;1.00;;;;;;5011830;28;20379;-45
2023/01/19 11:46:17;;;;;;;3.20;2.50;;;7.60;1.00;;;;;;4993790;28;20365;-45
2023/01/19 11:49:01;;;;;;;3.90;2.70;;;7.70;1.00;;;;;;5011656;28;20128;-45
2023/01/19 11:51:37;;;;;;;2.53;2.30;;;7.70;1.00;;;;;;5011753;28;20026;-45
2023/01/19 11:54:19;;;;;;;3.73;2.20;;;7.80;1.00;;;;;;5011460;28;20034;-45
2023/01/19 11:56:47;;;;;;;3.40;2.63;;;7.80;1.00;;;;;;5011337;28;20387;-47
2023/01/19 11:59:13;;;;;;;4.00;2.13;;;7.70;1.00;;;;;;5011398;28;20022;-45
2023/01/19 12:01:53;;;;;;;3.27;1.57;;;7.60;1.00;;;;;;5011848;28;20041;-48
2023/01/19 12:04:23;;;;;;;1.77;1.00;;;7.60;1.00;;;;;;5004449;28;20124;-46
2023/01/19 12:06:53;;;;;;;2.63;1.10;;;7.40;1.00;;;;;;5010986;28;20026;-47
2023/01/19 12:09:23;;;;;;;1.67;1.07;;;7.50;1.00;;;;;;5007527;28;20034;-50
2023/01/19 12:12:13;;;;;;;1.03;0.80;;;7.50;1.00;;;;;;5008235;28;20057;-48
2023/01/19 12:14:48;;;;;;;2.00;1.10;;;7.50;1.00;;;;;;5011461;28;20141;-50
2023/01/19 12:17:24;;;;;;;2.80;1.20;;;7.60;1.00;;;;;;5011329;28;20396;-51
2023/01/19 12:20:13;;;;;;;2.77;1.20;;;7.60;1.00;;;;;;5011487;28;20064;-50
2023/01/19 12:22:49;;;;;;;2.87;1.03;;;7.50;1.00;;;;;;5006893;28;20428;-49
2023/01/19 12:25:30;;;;;;;3.50;1.00;;;7.50;1.00;;;;;;4993275;28;20468;-53
2023/01/19 12:27:58;;;;;;;2.00;1.20;;;7.40;1.00;;;;;;4992498;28;20369;-52
2023/01/19 12:30:28;;;;;;;1.97;1.27;;;7.50;1.00;;;;;;5011038;28;20061;-46
2023/01/19 12:33:20;;;;;;;2.77;1.50;;;7.60;1.00;;;;;;5011441;28;20113;-46
2023/01/19 12:35:58;;;;;;;2.70;1.47;;;7.50;1.00;;;;;;5010285;28;20076;-46
2023/01/19 12:38:39;;;;;;;4.17;1.20;;;7.60;1.00;;;;;;5005787;28;20023;-47
2023/01/19 12:41:33;;;;;;;2.20;1.30;;;7.60;1.00;;;;;;5014742;28;20113;-52
2023/01/19 12:44:11;;;;;;;2.03;1.40;;;7.70;1.00;;;;;;5013934;28;20033;-47
2023/01/19 12:46:37;;;;;;;1.00;0.90;;;7.50;1.00;;;;;;5011910;28;20025;-46
2023/01/19 12:49:12;;;;;;;4.40;1.13;;;7.50;1.00;;;;;;5014377;28;20439;-55
2023/01/19 12:51:38;;;;;;;2.67;1.53;;;7.30;1.00;;;;;;4996580;28;20037;-48
2023/01/19 12:54:08;;;;;;;2.53;1.07;;;7.30;1.00;;;;;;5010253;28;20033;-47
2023/01/19 12:56:37;;;;;;;4.57;1.30;;;7.50;1.00;;;;;;5001231;28;20172;-48
2023/01/19 12:59:03;;;;;;;3.07;1.00;;;7.50;1.00;;;;;;5014721;28;20029;-46
2023/01/19 13:01:29;;;;;;;5.97;2.03;;;7.50;1.00;;;;;;5014058;28;20430;-50
2023/01/19 13:04:29;;;;;;;2.87;1.30;;;7.50;1.00;;;;;;5013915;28;20030;-51
2023/01/19 13:07:16;;;;;;;3.00;0.90;;;7.40;1.00;;;;;;5005298;28;20040;-52
2023/01/19 13:09:42;;;;;;;3.20;1.40;;;7.20;1.00;;;;;;4996375;28;20157;-48
2023/01/19 13:12:27;;;;;;;3.60;1.90;;;7.40;1.00;;;;;;5013756;28;20470;-48
2023/01/19 13:15:34;;;;;;;4.05;1.60;;;7.30;1.00;;;;;;5014329;28;20404;-46
2023/01/19 13:18:00;;;;;;;4.33;1.47;;;7.50;1.00;;;;;;5009079;28;20026;-50
2023/01/19 13:20:34;;;;;;;2.10;1.00;;;7.70;1.00;;;;;;5014050;28;20034;-46
2023/01/19 13:23:26;;;;;;;1.50;1.10;;;7.70;1.00;;;;;;5013654;28;20470;-46
2023/01/19 13:26:00;;;;;;;5.10;0.90;;;7.60;1.00;;;;;;5013827;28;20033;-45
2023/01/19 13:28:38;;;;;;;2.35;1.40;;;7.70;1.00;;;;;;5013431;28;20041;-47